CYPXCYPH

Guest
Details From CYPX - PUVIRNITUQ
To CYPH - Inukjuak
Flight Number -
Tags generated
Created
Modified
Stats Distance 98 nm / 181 km
Max Altitude 100 ft / 30 m
Waypoints 3
Social Downloads 0
Likes 0
Share VATSIM

Download

Looking for another format? Having issues loading an existing format? Contact us
Advertisement - Login to hide

Notes

Basic altitude profile: - Ascent Rate: 2500ft/min - Ascent Speed: 250kts - Cruise Altitude: 35000ft - Cruise Speed: 420kts - Descent Rate: 1500ft/min - Descent Speed: 250kts Options: - Use NATs: yes - Use PACOTS: yes - Use low airways: yes - Use high airways: yes

Route

CYPX YPX CYPH

ID Type Via Altitude Latitude Longitude Leg Dist Tot Dist Heading (true) Name
O CYPX APT - 0 ft / 0 m 60.05042˚ -77.28694˚ - 0 nm - PUVIRNITUQ
YPX DME - 100 ft / 30 m 60.04361˚ -77.27950˚ 0 nm 0 nm 151° / 151° PUVIRNITUQ QUE DME
O CYPH APT - 0 ft / 0 m 58.47181˚ -78.07722˚ 97 nm 97 nm 195° / 194° Inukjuak

Altitude Profile

Advertisement - Login to hide

CYPX

Details ICAO CYPX (YPX)
Name PUVIRNITUQ
Region Canada
Timezone America/Montreal (UTC-4.0)
Stats Elevation 74 ft / 23 m (AMSL)
Location 60.050418° -77.286945°
Runways 1
Magnetic Variation 19.836° W

METAR

CYPX 250500Z AUTO 05009KT 9SM OVC028 M05/M08 A2987 RMK TS/LTNG TEMPO UNAVBL SLP118

Decode

TAF

TAF CYPX 250538Z 2506/2518 05008KT P6SM OVC030 TEMPO 2506/2518 6SM -SN OVC020 BECMG 2512/2514 33012KT RMK FCST BASED ON AUTO OBS. NXT FCST BY 251200Z

Decode

Departure Runways

ID Width Length Bearing (true) Bearing (mag) Surface Threshold Offset Overrun Length
01 100 ft / 30 m 4,971 ft / 1,515 m 343.44° 3.28° Gravel 0 ft / 0 m 0 ft / 0 m
19 100 ft / 30 m 4,971 ft / 1,515 m 163.44° 183.28° Gravel 0 ft / 0 m 0 ft / 0 m

CYPH

Details ICAO CYPH (YPH)
Name Inukjuak
Region Canada
Timezone America/Montreal (UTC-4.0)
Stats Elevation 78 ft / 24 m (AMSL)
Location 58.471815° -78.077222°
Runways 1
Magnetic Variation 18.029° W

METAR

CYPH 250500Z AUTO 04012KT 9SM CLR M09/M11 A2979 RMK SLP091

Decode

TAF

TAF CYPH 250539Z 2506/2518 04012KT P6SM SCT012 BKN040 TEMPO 2506/2509 BKN012 BKN040 PROB30 2506/2509 BKN007 FM250900 02010KT P6SM FEW008 BKN012 BKN070 TEMPO 2509/2515 SCT012 BKN070 PROB30 2509/2511 BKN007 FM251500 02010KT P6SM SCT020 BKN050 RMK FCST BASED ON AUTO OBS. NXT FCST BY 251200Z

Decode

Destination Runways

ID Width Length Bearing (true) Bearing (mag) Surface Threshold Offset Overrun Length
23 131 ft / 40 m 3,915 ft / 1,193 m 46.70° 64.73° Gravel 0 ft / 0 m 0 ft / 0 m
5 131 ft / 40 m 3,915 ft / 1,193 m 226.71° 244.74° Gravel 0 ft / 0 m 0 ft / 0 m

Popular Alternatives